Aérodrome :
LOGIN :

S'inscrire | Disclaimer

   EN    FR    IT 

 










Légende :    VFR   VFR Marginal   IFR   IFR Intensif   IFR Très Intensif
Visi : 
Plafond : 
>= 8 km
>= 3000ft
5 à 8 km
1000 à 3000 ft
1500m à 5 km
500 à 1000 ft
800 à 1500m
200 à 500 ft
< 800m
< 200 ft
Symboles :   Orages  Brouillard  Fortes neiges  Fortes précipitations  Vent > 20 kt
SIGMETs :   Divers  Orages  Givrage  Turbulence  Onde Orograph.  Cendres Volcan.







- Altitude de l'aérodrome : 96 ft
- Code IATA : REG


LICR - Reggio Calabria

DERNIER METAR :
  • 220650Z 15019G32KT 9999 SCT070 20/05 Q1012

METARs EXPIRÉS :
  • 220550Z 15019G31KT 9999 SCT070 20/05 Q1012
  • 220450Z 15021G33KT 9999 SCT070 20/05 Q1012

TAF TAF LICR
Valide du 22 à 06h jusqu'au 23 à 06h UTC


220500Z 2206/2306 19018G30KT 9999 SCT030
TEMPO 2210/2215 RA
BECMG 2222/2224 19015KT
Pas de NOTAMs connus pour ce terrain.
3 SIGMETs publiés pour la FIR Roma (LIRR) :
 
Turbulence forte
LIRR SIGMET 3 VALID 220805/221205 LIIB
LIRR ROMA FIR SEV TURB FCST WI N3900 E00805 - N4250 E01304 - N4122 E01423 - N4107 E01507 - N3859 E01622 - N3626 E01708 - N3628 E01129 - N3728 E01128 - N3900 E00805 SFC/FL120 STNR NC=
Turbulence forte
LIRR SIGMET 2 VALID 220405/220805 LIIB
LIRR ROMA FIR SEV TURB FCST WI N4154 E00943 - N4131 E01022 - N4026 E01201 - N3853 E01424 - N3630 E01626 - N3631 E01128 - N3728 E01131 - N3900 E00758 - N4055 E00757 - N4118 E00816 - N4119 E00945 - N4154 E00943 FL270/370 STNR NC=
Turbulence forte
LIRR SIGMET 1 VALID 220405/220805 LIIB
LIRR ROMA FIR SEV TURB FCST WI N4154 E00943 - N4131 E01022 - N4026 E01201 - N3853 E01424 - N3630 E01626 - N3631 E01128 - N3728 E01131 - N3900 E00758 - N4055 E00757 - N4118 E00816 - N4119 E00945 - N4154 E00943 SFC/FL080 STNR NC=



MET'MAP, la Météo Aéronautique d'un coup d'oeil ! - Copyright ORBIFLY Décembre 2007 - Disclaimer

ORBIFLY MET'MAP TEAM :

Programmation & Développement : Alexandra Zaïnal
Conception & Développement : Baudouin d'Aumeries
Co-Programmation & Développement : Marc-Olivier Méhu
Soutien technique & logistique : Manuel Goepfert

Contact : metmap@orbifly.com




SOURCES & CREDITS :

   NOAA